createdAt,value
2023-06-03T00:04:35.257Z,7.50
2023-06-03T00:14:38.725Z,6.80
2023-06-03T00:24:42.624Z,7.60
2023-06-03T00:34:46.899Z,7.20
2023-06-03T00:44:50.375Z,6.40
2023-06-03T00:54:54.342Z,8.80
2023-06-03T01:04:58.698Z,5.30
2023-06-03T01:15:11.166Z,6.10
2023-06-03T01:25:22.437Z,5.00
2023-06-03T01:35:53.618Z,4.60
2023-06-03T01:45:58.302Z,6.60
2023-06-03T01:56:02.732Z,6.20
2023-06-03T02:06:08.032Z,6.90
2023-06-03T02:16:13.376Z,4.10
2023-06-03T02:26:24.754Z,8.60
2023-06-03T02:36:28.392Z,5.10
2023-06-03T02:46:32.646Z,5.70
2023-06-03T02:56:37.678Z,5.80
2023-06-03T03:06:42.288Z,7.60
2023-06-03T03:16:47.270Z,5.60
2023-06-03T03:26:51.550Z,9.00
2023-06-03T03:36:56.569Z,5.90
2023-06-03T03:47:04.848Z,7.90
2023-06-03T03:57:14.064Z,5.30
2023-06-03T04:07:22.665Z,7.90
2023-06-03T04:18:44.669Z,7.90
2023-06-03T04:28:48.361Z,7.20
2023-06-03T04:38:52.725Z,7.20
2023-06-03T04:48:58.564Z,9.50
2023-06-03T04:59:06.520Z,7.50
2023-06-03T05:09:22.338Z,6.20
2023-06-03T05:19:53.695Z,4.00
2023-06-03T05:29:57.547Z,4.60
2023-06-03T05:40:01.769Z,7.80
2023-06-03T05:50:08.037Z,5.50
2023-06-03T06:00:12.728Z,8.40
2023-06-03T06:10:19.102Z,4.00
2023-06-03T06:20:23.505Z,4.60
2023-06-03T06:30:27.441Z,9.30
2023-06-03T06:40:34.758Z,4.70
2023-06-03T06:51:00.632Z,4.50
2023-06-03T07:01:11.786Z,5.10
2023-06-03T07:11:24.179Z,6.60
2023-06-03T07:21:34.424Z,5.40
2023-06-03T07:31:38.851Z,5.00
2023-06-03T07:41:47.002Z,4.00
2023-06-03T07:51:58.947Z,5.00
2023-06-03T08:02:02.954Z,4.40
2023-06-03T08:12:08.686Z,4.30
2023-06-03T08:22:30.095Z,7.40
2023-06-03T08:32:37.710Z,5.00
2023-06-03T08:42:49.635Z,4.20
2023-06-03T08:52:54.376Z,6.90
2023-06-03T09:02:58.112Z,7.00
2023-06-03T09:13:08.802Z,4.80
2023-06-03T09:23:14.287Z,7.50
2023-06-03T09:33:17.953Z,6.70
2023-06-03T09:43:21.962Z,5.60
2023-06-03T09:53:25.544Z,4.10
2023-06-03T10:03:30.133Z,4.20
2023-06-03T10:13:35.190Z,3.70
2023-06-03T10:23:40.711Z,3.90
2023-06-03T10:33:44.898Z,5.00
2023-06-03T10:43:48.287Z,4.40
2023-06-03T10:54:20.669Z,5.40
2023-06-03T11:04:26.845Z,5.90
2023-06-03T11:14:49.799Z,8.10
2023-06-03T11:24:53.555Z,9.40
2023-06-03T11:35:06.172Z,7.70
2023-06-03T11:45:38.958Z,5.50
2023-06-03T11:55:42.651Z,4.40
2023-06-03T12:05:59.064Z,4.40
2023-06-03T12:16:02.271Z,7.10
2023-06-03T12:26:05.963Z,6.70
2023-06-03T12:36:09.998Z,3.80
2023-06-03T12:46:17.885Z,6.60
2023-06-03T12:56:22.336Z,11.40
2023-06-03T13:06:27.194Z,3.20
2023-06-03T13:16:31.569Z,3.90
2023-06-03T13:26:34.956Z,10.10
2023-06-03T13:37:02.868Z,4.10
2023-06-03T13:57:10.762Z,8.00
2023-06-03T14:07:40.291Z,5.30
2023-06-03T14:17:44.628Z,4.10
2023-06-03T14:27:48.178Z,9.70
2023-06-03T14:37:51.526Z,6.80
2023-06-03T14:47:54.855Z,5.00
2023-06-03T14:57:58.168Z,7.50
2023-06-03T15:08:02.988Z,7.50
2023-06-03T15:18:07.112Z,3.60
2023-06-03T15:28:11.387Z,5.30
2023-06-03T15:38:40.332Z,6.10
2023-06-03T15:48:43.866Z,14.90
2023-06-03T15:58:49.436Z,4.20
2023-06-03T16:08:54.117Z,3.60
2023-06-03T16:18:58.393Z,4.90
2023-06-03T16:29:01.811Z,5.50
2023-06-03T16:39:05.335Z,3.60
2023-06-03T16:49:08.687Z,8.20
2023-06-03T16:59:16.363Z,4.30
2023-06-03T17:09:20.998Z,5.10
2023-06-03T17:19:25.877Z,3.30
2023-06-03T17:29:29.358Z,3.70
2023-06-03T17:39:33.255Z,6.90
2023-06-03T17:50:01.506Z,4.70
2023-06-03T18:00:05.946Z,8.10
2023-06-03T18:10:16.172Z,10.60
2023-06-03T18:20:19.903Z,11.70
2023-06-03T18:30:23.112Z,10.20
2023-06-03T18:40:26.627Z,12.90
2023-06-03T18:50:30.467Z,11.60
2023-06-03T19:00:37.232Z,8.50
2023-06-03T19:10:41.477Z,21.40
2023-06-03T19:20:46.961Z,17.30
2023-06-03T19:30:50.059Z,20.10
2023-06-03T19:40:53.763Z,18.40
2023-06-03T19:50:57.600Z,18.70
2023-06-03T20:01:00.837Z,20.90
2023-06-03T20:11:07.073Z,21.50
2023-06-03T20:21:10.436Z,15.60
2023-06-03T20:31:39.537Z,19.50
2023-06-03T20:42:08.886Z,14.00
2023-06-03T20:52:37.529Z,16.00
2023-06-03T21:12:44.382Z,13.30
2023-06-03T21:22:48.122Z,25.40
2023-06-03T21:32:51.884Z,23.40
2023-06-03T21:42:55.644Z,17.50
2023-06-03T21:52:58.932Z,16.60
2023-06-03T22:03:03.641Z,15.40
2023-06-03T22:13:08.382Z,12.40
2023-06-03T22:23:11.548Z,11.60
2023-06-03T22:33:15.160Z,13.80
2023-06-03T22:43:21.330Z,16.90
2023-06-03T22:53:25.636Z,16.40
2023-06-03T23:03:33.113Z,8.50
2023-06-03T23:14:01.840Z,12.30
2023-06-03T23:24:31.074Z,8.50
2023-06-03T23:34:34.599Z,9.60
2023-06-03T23:44:37.943Z,11.90
2023-06-03T23:54:42.035Z,12.90
